sensor_id;sensor_type;location;lat;lon;timestamp;pressure;altitude;pressure_sealevel;temperature;humidity
29045;BME280;16133;49.486;12.176;2023-10-08T00:01:15;97935.75;;;12.55;100.00
29045;BME280;16133;49.486;12.176;2023-10-08T00:03:47;97935.13;;;12.53;100.00
29045;BME280;16133;49.486;12.176;2023-10-08T00:06:20;97932.81;;;12.50;100.00
29045;BME280;16133;49.486;12.176;2023-10-08T00:08:49;97925.38;;;12.45;100.00
29045;BME280;16133;49.486;12.176;2023-10-08T00:11:15;97927.53;;;12.42;100.00
29045;BME280;16133;49.486;12.176;2023-10-08T00:13:42;97925.59;;;12.36;100.00
29045;BME280;16133;49.486;12.176;2023-10-08T00:16:09;97930.09;;;12.35;100.00
29045;BME280;16133;49.486;12.176;2023-10-08T00:18:36;97927.63;;;12.34;100.00
29045;BME280;16133;49.486;12.176;2023-10-08T00:21:03;97926.97;;;12.32;100.00
29045;BME280;16133;49.486;12.176;2023-10-08T00:23:38;97932.66;;;12.29;100.00
29045;BME280;16133;49.486;12.176;2023-10-08T00:26:07;97931.97;;;12.27;100.00
29045;BME280;16133;49.486;12.176;2023-10-08T00:28:33;97941.31;;;12.23;100.00
29045;BME280;16133;49.486;12.176;2023-10-08T00:31:01;97930.56;;;12.16;100.00
29045;BME280;16133;49.486;12.176;2023-10-08T00:33:37;97939.50;;;12.23;100.00
29045;BME280;16133;49.486;12.176;2023-10-08T00:36:02;97943.81;;;12.24;100.00
29045;BME280;16133;49.486;12.176;2023-10-08T00:38:43;97932.53;;;12.22;100.00
29045;BME280;16133;49.486;12.176;2023-10-08T00:41:13;97938.03;;;12.21;100.00
29045;BME280;16133;49.486;12.176;2023-10-08T00:43:39;97928.56;;;12.18;100.00
29045;BME280;16133;49.486;12.176;2023-10-08T00:46:07;97926.06;;;12.17;100.00
29045;BME280;16133;49.486;12.176;2023-10-08T00:48:48;97928.91;;;12.15;100.00
29045;BME280;16133;49.486;12.176;2023-10-08T00:51:14;97924.78;;;12.13;100.00
29045;BME280;16133;49.486;12.176;2023-10-08T00:54:04;97934.59;;;12.12;100.00
29045;BME280;16133;49.486;12.176;2023-10-08T00:56:34;97926.81;;;12.11;100.00
29045;BME280;16133;49.486;12.176;2023-10-08T00:59:23;97928.78;;;12.09;100.00
29045;BME280;16133;49.486;12.176;2023-10-08T01:01:50;97925.31;;;12.08;100.00
29045;BME280;16133;49.486;12.176;2023-10-08T01:04:30;97926.50;;;12.06;100.00
29045;BME280;16133;49.486;12.176;2023-10-08T01:06:59;97915.19;;;12.04;100.00
29045;BME280;16133;49.486;12.176;2023-10-08T01:09:38;97907.41;;;12.02;100.00
29045;BME280;16133;49.486;12.176;2023-10-08T01:14:49;97905.94;;;12.00;100.00
29045;BME280;16133;49.486;12.176;2023-10-08T01:17:22;97891.13;;;11.97;100.00
29045;BME280;16133;49.486;12.176;2023-10-08T01:19:52;97893.31;;;11.93;100.00
29045;BME280;16133;49.486;12.176;2023-10-08T01:22:56;97899.00;;;11.90;100.00
29045;BME280;16133;49.486;12.176;2023-10-08T01:25:22;97904.31;;;11.90;100.00
29045;BME280;16133;49.486;12.176;2023-10-08T01:27:49;97909.28;;;11.93;100.00
29045;BME280;16133;49.486;12.176;2023-10-08T01:30:20;97906.44;;;11.95;100.00
29045;BME280;16133;49.486;12.176;2023-10-08T01:32:46;97912.59;;;11.95;100.00
29045;BME280;16133;49.486;12.176;2023-10-08T01:35:11;97909.44;;;11.92;100.00
29045;BME280;16133;49.486;12.176;2023-10-08T01:37:49;97891.94;;;11.75;100.00
29045;BME280;16133;49.486;12.176;2023-10-08T01:40:18;97911.63;;;11.88;100.00
29045;BME280;16133;49.486;12.176;2023-10-08T01:42:44;97907.34;;;11.87;100.00
29045;BME280;16133;49.486;12.176;2023-10-08T01:45:11;97903.84;;;11.87;100.00
29045;BME280;16133;49.486;12.176;2023-10-08T01:47:41;97902.19;;;11.86;100.00
29045;BME280;16133;49.486;12.176;2023-10-08T01:50:08;97903.38;;;11.83;100.00
29045;BME280;16133;49.486;12.176;2023-10-08T01:52:49;97908.69;;;11.83;100.00
29045;BME280;16133;49.486;12.176;2023-10-08T01:55:14;97900.22;;;11.80;100.00
29045;BME280;16133;49.486;12.176;2023-10-08T01:57:44;97917.00;;;11.80;100.00
29045;BME280;16133;49.486;12.176;2023-10-08T02:00:10;97916.34;;;11.78;100.00
29045;BME280;16133;49.486;12.176;2023-10-08T02:02:36;97914.69;;;11.77;100.00
29045;BME280;16133;49.486;12.176;2023-10-08T02:05:01;97914.69;;;11.77;100.00
29045;BME280;16133;49.486;12.176;2023-10-08T02:07:28;97907.88;;;11.75;100.00
29045;BME280;16133;49.486;12.176;2023-10-08T02:09:54;97918.53;;;11.75;100.00
29045;BME280;16133;49.486;12.176;2023-10-08T02:12:19;97903.06;;;11.70;100.00
29045;BME280;16133;49.486;12.176;2023-10-08T02:14:44;97912.56;;;11.65;100.00
29045;BME280;16133;49.486;12.176;2023-10-08T02:17:10;97902.97;;;11.56;100.00
29045;BME280;16133;49.486;12.176;2023-10-08T02:19:35;97904.19;;;11.45;100.00
29045;BME280;16133;49.486;12.176;2023-10-08T02:22:02;97906.22;;;11.35;100.00
29045;BME280;16133;49.486;12.176;2023-10-08T02:24:31;97897.28;;;11.28;100.00
29045;BME280;16133;49.486;12.176;2023-10-08T02:26:58;97905.59;;;11.25;100.00
29045;BME280;16133;49.486;12.176;2023-10-08T02:29:26;97904.25;;;11.29;100.00
29045;BME280;16133;49.486;12.176;2023-10-08T02:31:52;97903.91;;;11.32;100.00
29045;BME280;16133;49.486;12.176;2023-10-08T02:34:19;97909.69;;;11.35;100.00
29045;BME280;16133;49.486;12.176;2023-10-08T02:36:45;97901.56;;;11.37;100.00
29045;BME280;16133;49.486;12.176;2023-10-08T02:39:13;97901.22;;;11.40;100.00
29045;BME280;16133;49.486;12.176;2023-10-08T02:41:51;97895.56;;;11.43;100.00
29045;BME280;16133;49.486;12.176;2023-10-08T02:44:17;97898.53;;;11.48;100.00
29045;BME280;16133;49.486;12.176;2023-10-08T02:46:46;97887.53;;;11.51;100.00
29045;BME280;16133;49.486;12.176;2023-10-08T02:49:13;97890.03;;;11.52;100.00
29045;BME280;16133;49.486;12.176;2023-10-08T02:51:42;97894.16;;;11.55;100.00
29045;BME280;16133;49.486;12.176;2023-10-08T02:54:10;97879.41;;;11.52;100.00
29045;BME280;16133;49.486;12.176;2023-10-08T02:56:52;97887.81;;;11.64;100.00
29045;BME280;16133;49.486;12.176;2023-10-08T02:59:23;97892.09;;;11.73;100.00
29045;BME280;16133;49.486;12.176;2023-10-08T03:01:50;97899.94;;;11.97;100.00
29045;BME280;16133;49.486;12.176;2023-10-08T03:04:17;97918.09;;;12.17;100.00
29045;BME280;16133;49.486;12.176;2023-10-08T03:06:48;97910.47;;;12.36;100.00
29045;BME280;16133;49.486;12.176;2023-10-08T03:09:22;97910.88;;;12.48;100.00
29045;BME280;16133;49.486;12.176;2023-10-08T03:11:51;97921.56;;;12.63;100.00
29045;BME280;16133;49.486;12.176;2023-10-08T03:14:18;97919.66;;;12.71;100.00
29045;BME280;16133;49.486;12.176;2023-10-08T03:16:48;97934.19;;;12.83;100.00
29045;BME280;16133;49.486;12.176;2023-10-08T03:19:14;97929.06;;;12.97;100.00
29045;BME280;16133;49.486;12.176;2023-10-08T03:21:40;97935.31;;;13.04;100.00
29045;BME280;16133;49.486;12.176;2023-10-08T03:24:05;97933.81;;;13.24;100.00
29045;BME280;16133;49.486;12.176;2023-10-08T03:26:58;97922.41;;;13.45;100.00
29045;BME280;16133;49.486;12.176;2023-10-08T03:29:48;97934.63;;;13.54;100.00
29045;BME280;16133;49.486;12.176;2023-10-08T03:32:14;97936.09;;;13.56;100.00
29045;BME280;16133;49.486;12.176;2023-10-08T03:34:47;97935.66;;;13.53;100.00
29045;BME280;16133;49.486;12.176;2023-10-08T03:37:20;97939.50;;;13.50;100.00
29045;BME280;16133;49.486;12.176;2023-10-08T03:39:47;97942.53;;;13.47;100.00
29045;BME280;16133;49.486;12.176;2023-10-08T03:42:23;97947.94;;;13.54;100.00
29045;BME280;16133;49.486;12.176;2023-10-08T03:44:49;97936.94;;;13.57;100.00
29045;BME280;16133;49.486;12.176;2023-10-08T03:47:21;97939.03;;;13.61;100.00
29045;BME280;16133;49.486;12.176;2023-10-08T03:49:51;97940.06;;;13.60;100.00
29045;BME280;16133;49.486;12.176;2023-10-08T03:52:17;97945.38;;;13.75;100.00
29045;BME280;16133;49.486;12.176;2023-10-08T03:54:48;97956.28;;;13.95;100.00
29045;BME280;16133;49.486;12.176;2023-10-08T03:57:17;97964.41;;;14.08;100.00
29045;BME280;16133;49.486;12.176;2023-10-08T03:59:51;97960.63;;;14.17;100.00
29045;BME280;16133;49.486;12.176;2023-10-08T04:02:20;97960.97;;;14.28;100.00
29045;BME280;16133;49.486;12.176;2023-10-08T04:04:58;97963.44;;;14.30;100.00
29045;BME280;16133;49.486;12.176;2023-10-08T04:07:25;97966.75;;;14.32;100.00
29045;BME280;16133;49.486;12.176;2023-10-08T04:10:03;97958.25;;;14.64;97.61
29045;BME280;16133;49.486;12.176;2023-10-08T04:12:36;97963.28;;;14.53;97.84
29045;BME280;16133;49.486;12.176;2023-10-08T04:15:06;97961.88;;;14.57;98.14
29045;BME280;16133;49.486;12.176;2023-10-08T04:17:40;97952.03;;;14.57;97.11
29045;BME280;16133;49.486;12.176;2023-10-08T04:20:13;97960.81;;;14.51;98.09
29045;BME280;16133;49.486;12.176;2023-10-08T04:23:05;97964.72;;;14.49;98.95
29045;BME280;16133;49.486;12.176;2023-10-08T04:25:32;97955.97;;;14.61;97.03
29045;BME280;16133;49.486;12.176;2023-10-08T04:27:59;97963.88;;;14.48;98.96
29045;BME280;16133;49.486;12.176;2023-10-08T04:30:33;97963.28;;;14.53;98.96
29045;BME280;16133;49.486;12.176;2023-10-08T04:32:59;97956.81;;;14.62;97.72
29045;BME280;16133;49.486;12.176;2023-10-08T04:35:35;97950.63;;;14.82;96.37
29045;BME280;16133;49.486;12.176;2023-10-08T04:38:21;97948.19;;;14.88;95.43
29045;BME280;16133;49.486;12.176;2023-10-08T04:40:54;97945.41;;;14.74;97.21
29045;BME280;16133;49.486;12.176;2023-10-08T04:43:24;97941.72;;;14.75;97.47
29045;BME280;16133;49.486;12.176;2023-10-08T04:45:59;97939.19;;;14.95;95.62
29045;BME280;16133;49.486;12.176;2023-10-08T04:48:30;97941.38;;;14.85;96.68
29045;BME280;16133;49.486;12.176;2023-10-08T04:50:58;97943.28;;;14.91;96.73
29045;BME280;16133;49.486;12.176;2023-10-08T04:53:28;97944.22;;;15.05;94.85
29045;BME280;16133;49.486;12.176;2023-10-08T04:56:01;97945.38;;;15.23;93.62
29045;BME280;16133;49.486;12.176;2023-10-08T04:58:42;97958.63;;;15.10;94.74
29045;BME280;16133;49.486;12.176;2023-10-08T05:01:14;97950.00;;;15.08;94.87
29045;BME280;16133;49.486;12.176;2023-10-08T05:03:44;97922.69;;;15.13;95.05
29045;BME280;16133;49.486;12.176;2023-10-08T05:06:32;97935.22;;;15.12;95.17
29045;BME280;16133;49.486;12.176;2023-10-08T05:09:03;97939.69;;;15.05;96.09
29045;BME280;16133;49.486;12.176;2023-10-08T05:11:44;97930.31;;;15.16;93.67
29045;BME280;16133;49.486;12.176;2023-10-08T05:14:16;97947.31;;;15.36;92.22
29045;BME280;16133;49.486;12.176;2023-10-08T05:16:56;97938.19;;;15.24;93.85
29045;BME280;16133;49.486;12.176;2023-10-08T05:19:48;97921.22;;;15.10;95.24
29045;BME280;16133;49.486;12.176;2023-10-08T05:22:21;97935.63;;;15.09;95.17
29045;BME280;16133;49.486;12.176;2023-10-08T05:24:57;97938.63;;;15.00;96.47
29045;BME280;16133;49.486;12.176;2023-10-08T05:27:36;97936.22;;;15.11;95.25
29045;BME280;16133;49.486;12.176;2023-10-08T05:30:19;97939.34;;;15.15;95.42
29045;BME280;16133;49.486;12.176;2023-10-08T05:33:06;97919.38;;;15.11;95.52
29045;BME280;16133;49.486;12.176;2023-10-08T05:35:39;97927.16;;;15.06;97.11
29045;BME280;16133;49.486;12.176;2023-10-08T05:38:08;97923.38;;;14.94;98.55
29045;BME280;16133;49.486;12.176;2023-10-08T05:40:53;97916.19;;;14.94;99.36
29045;BME280;16133;49.486;12.176;2023-10-08T05:46:03;97913.72;;;14.99;98.37
29045;BME280;16133;49.486;12.176;2023-10-08T05:48:50;97921.56;;;15.01;99.36
29045;BME280;16133;49.486;12.176;2023-10-08T05:51:32;97912.56;;;15.08;98.56
29045;BME280;16133;49.486;12.176;2023-10-08T05:54:21;97912.38;;;15.10;98.09
29045;BME280;16133;49.486;12.176;2023-10-08T05:57:08;97925.09;;;15.08;99.04
29045;BME280;16133;49.486;12.176;2023-10-08T05:59:47;97925.09;;;15.08;98.87
29045;BME280;16133;49.486;12.176;2023-10-08T06:02:32;97927.59;;;15.09;98.61
29045;BME280;16133;49.486;12.176;2023-10-08T06:05:00;97928.22;;;15.11;98.35
29045;BME280;16133;49.486;12.176;2023-10-08T06:10:16;97919.63;;;15.16;99.04
29045;BME280;16133;49.486;12.176;2023-10-08T06:12:59;97927.81;;;15.14;99.64
29045;BME280;16133;49.486;12.176;2023-10-08T06:15:50;97892.69;;;15.17;100.00
29045;BME280;16133;49.486;12.176;2023-10-08T06:18:23;97877.84;;;15.15;100.00
29045;BME280;16133;49.486;12.176;2023-10-08T06:23:22;97909.06;;;15.08;100.00
29045;BME280;16133;49.486;12.176;2023-10-08T06:25:52;97921.22;;;15.10;100.00
29045;BME280;16133;49.486;12.176;2023-10-08T06:28:31;97927.19;;;15.12;100.00
29045;BME280;16133;49.486;12.176;2023-10-08T06:31:00;97929.03;;;15.12;100.00
29045;BME280;16133;49.486;12.176;2023-10-08T06:33:26;97915.06;;;15.10;100.00
29045;BME280;16133;49.486;12.176;2023-10-08T06:36:02;97942.38;;;15.05;100.00
29045;BME280;16133;49.486;12.176;2023-10-08T06:38:32;97940.91;;;15.03;100.00
29045;BME280;16133;49.486;12.176;2023-10-08T06:40:59;97928.56;;;15.02;100.00
29045;BME280;16133;49.486;12.176;2023-10-08T06:43:40;97942.13;;;15.00;100.00
29045;BME280;16133;49.486;12.176;2023-10-08T06:46:14;97951.16;;;14.99;100.00
29045;BME280;16133;49.486;12.176;2023-10-08T06:48:41;97951.97;;;15.00;100.00
29045;BME280;16133;49.486;12.176;2023-10-08T06:51:11;97962.53;;;15.08;100.00
29045;BME280;16133;49.486;12.176;2023-10-08T06:53:47;97969.38;;;15.17;100.00
29045;BME280;16133;49.486;12.176;2023-10-08T06:56:14;97975.59;;;15.24;100.00
29045;BME280;16133;49.486;12.176;2023-10-08T06:58:41;97999.53;;;15.32;100.00
29045;BME280;16133;49.486;12.176;2023-10-08T07:01:11;98016.06;;;15.49;100.00
29045;BME280;16133;49.486;12.176;2023-10-08T07:03:38;98012.28;;;15.58;98.80
29045;BME280;16133;49.486;12.176;2023-10-08T07:06:06;98012.31;;;15.64;98.90
29045;BME280;16133;49.486;12.176;2023-10-08T07:08:51;98022.41;;;15.69;97.97
29045;BME280;16133;49.486;12.176;2023-10-08T07:11:21;98019.16;;;15.73;97.89
29045;BME280;16133;49.486;12.176;2023-10-08T07:13:47;98018.16;;;15.74;97.52
29045;BME280;16133;49.486;12.176;2023-10-08T07:16:12;98022.03;;;15.72;98.40
29045;BME280;16133;49.486;12.176;2023-10-08T07:18:42;98032.38;;;15.82;97.93
29045;BME280;16133;49.486;12.176;2023-10-08T07:21:15;98040.91;;;15.98;93.36
29045;BME280;16133;49.486;12.176;2023-10-08T07:23:40;98061.34;;;16.06;93.25
29045;BME280;16133;49.486;12.176;2023-10-08T07:26:25;98056.19;;;16.11;92.63
29045;BME280;16133;49.486;12.176;2023-10-08T07:28:52;98047.19;;;16.18;92.21
29045;BME280;16133;49.486;12.176;2023-10-08T07:31:23;97987.63;;;16.10;92.07
29045;BME280;16133;49.486;12.176;2023-10-08T07:33:54;97966.81;;;16.05;94.54
29045;BME280;16133;49.486;12.176;2023-10-08T07:36:41;97980.22;;;16.05;96.65
29045;BME280;16133;49.486;12.176;2023-10-08T07:39:08;98004.31;;;16.12;98.04
29045;BME280;16133;49.486;12.176;2023-10-08T07:41:45;98007.44;;;16.22;98.47
29045;BME280;16133;49.486;12.176;2023-10-08T07:44:12;98016.97;;;16.31;99.38
29045;BME280;16133;49.486;12.176;2023-10-08T07:46:37;98013.28;;;16.45;98.45
29045;BME280;16133;49.486;12.176;2023-10-08T07:49:03;98017.06;;;16.57;97.69
29045;BME280;16133;49.486;12.176;2023-10-08T07:51:30;98019.13;;;16.68;98.58
29045;BME280;16133;49.486;12.176;2023-10-08T07:53:55;98044.13;;;16.89;96.20
29045;BME280;16133;49.486;12.176;2023-10-08T07:56:24;98051.78;;;17.11;93.88
29045;BME280;16133;49.486;12.176;2023-10-08T07:58:53;98056.34;;;17.31;92.22
29045;BME280;16133;49.486;12.176;2023-10-08T08:01:23;98075.34;;;17.55;87.13
29045;BME280;16133;49.486;12.176;2023-10-08T08:03:50;98093.91;;;17.90;83.64
29045;BME280;16133;49.486;12.176;2023-10-08T08:06:15;98099.69;;;17.93;82.58
29045;BME280;16133;49.486;12.176;2023-10-08T08:08:41;98084.34;;;18.07;80.27
29045;BME280;16133;49.486;12.176;2023-10-08T08:11:07;98091.41;;;18.01;81.28
29045;BME280;16133;49.486;12.176;2023-10-08T08:13:38;98085.59;;;17.98;79.81
29045;BME280;16133;49.486;12.176;2023-10-08T08:16:04;98089.28;;;18.10;79.68
29045;BME280;16133;49.486;12.176;2023-10-08T08:18:52;98113.25;;;18.18;78.21
29045;BME280;16133;49.486;12.176;2023-10-08T08:21:19;98097.97;;;18.05;79.86
29045;BME280;16133;49.486;12.176;2023-10-08T08:23:48;98104.84;;;18.01;80.63
29045;BME280;16133;49.486;12.176;2023-10-08T08:26:21;98106.25;;;18.04;80.80
29045;BME280;16133;49.486;12.176;2023-10-08T08:28:59;98109.06;;;18.35;77.52
29045;BME280;16133;49.486;12.176;2023-10-08T08:31:25;98114.03;;;18.38;78.62
29045;BME280;16133;49.486;12.176;2023-10-08T08:33:52;98108.81;;;18.56;76.53
29045;BME280;16133;49.486;12.176;2023-10-08T08:36:19;98102.75;;;18.74;75.71
29045;BME280;16133;49.486;12.176;2023-10-08T08:38:45;98105.00;;;18.77;74.82
29045;BME280;16133;49.486;12.176;2023-10-08T08:41:10;98096.16;;;18.63;76.28
29045;BME280;16133;49.486;12.176;2023-10-08T08:43:38;98093.13;;;18.40;77.24
29045;BME280;16133;49.486;12.176;2023-10-08T08:46:10;98086.56;;;18.30;77.62
29045;BME280;16133;49.486;12.176;2023-10-08T08:48:43;98084.53;;;18.19;79.31
29045;BME280;16133;49.486;12.176;2023-10-08T08:51:10;98071.13;;;18.12;79.21
29045;BME280;16133;49.486;12.176;2023-10-08T08:53:36;98048.44;;;17.95;80.82
29045;BME280;16133;49.486;12.176;2023-10-08T08:56:02;98025.56;;;17.86;82.24
29045;BME280;16133;49.486;12.176;2023-10-08T08:58:34;98031.53;;;17.75;83.77
29045;BME280;16133;49.486;12.176;2023-10-08T09:01:00;98042.69;;;17.72;84.56
29045;BME280;16133;49.486;12.176;2023-10-08T09:03:26;98039.84;;;17.66;85.29
29045;BME280;16133;49.486;12.176;2023-10-08T09:05:57;98043.97;;;17.62;85.45
29045;BME280;16133;49.486;12.176;2023-10-08T09:08:27;98045.63;;;17.70;83.74
29045;BME280;16133;49.486;12.176;2023-10-08T09:10:52;98060.88;;;17.76;83.29
29045;BME280;16133;49.486;12.176;2023-10-08T09:13:26;98051.91;;;18.02;83.57
29045;BME280;16133;49.486;12.176;2023-10-08T09:15:51;98061.75;;;18.34;82.39
29045;BME280;16133;49.486;12.176;2023-10-08T09:18:17;98067.22;;;18.59;81.79
29045;BME280;16133;49.486;12.176;2023-10-08T09:20:43;98063.41;;;18.80;80.75
29045;BME280;16133;49.486;12.176;2023-10-08T09:23:10;98079.47;;;18.93;78.47
29045;BME280;16133;49.486;12.176;2023-10-08T09:25:43;98073.63;;;19.02;77.18
29045;BME280;16133;49.486;12.176;2023-10-08T09:28:09;98088.06;;;19.08;77.35
29045;BME280;16133;49.486;12.176;2023-10-08T09:30:38;98085.53;;;19.13;76.85
29045;BME280;16133;49.486;12.176;2023-10-08T09:33:09;98080.06;;;19.26;75.10
29045;BME280;16133;49.486;12.176;2023-10-08T09:35:36;98084.84;;;19.24;75.44
29045;BME280;16133;49.486;12.176;2023-10-08T09:38:06;98090.50;;;19.16;75.53
29045;BME280;16133;49.486;12.176;2023-10-08T09:40:39;98092.38;;;19.16;75.69
29045;BME280;16133;49.486;12.176;2023-10-08T09:43:12;98098.28;;;19.24;76.46
29045;BME280;16133;49.486;12.176;2023-10-08T09:45:45;98101.28;;;19.41;75.59
29045;BME280;16133;49.486;12.176;2023-10-08T09:48:15;98101.09;;;19.67;74.11
29045;BME280;16133;49.486;12.176;2023-10-08T09:50:41;98113.06;;;19.71;73.56
29045;BME280;16133;49.486;12.176;2023-10-08T09:55:43;98120.91;;;19.54;73.25
29045;BME280;16133;49.486;12.176;2023-10-08T09:58:10;98136.94;;;19.43;74.52
29045;BME280;16133;49.486;12.176;2023-10-08T10:00:39;98140.50;;;19.30;74.29
29045;BME280;16133;49.486;12.176;2023-10-08T10:03:05;98144.75;;;19.44;73.90
29045;BME280;16133;49.486;12.176;2023-10-08T10:05:33;98140.84;;;19.47;74.02
29045;BME280;16133;49.486;12.176;2023-10-08T10:08:05;98134.34;;;19.54;72.32
29045;BME280;16133;49.486;12.176;2023-10-08T10:10:32;98127.53;;;19.52;73.40
29045;BME280;16133;49.486;12.176;2023-10-08T10:13:06;98128.03;;;19.42;73.42
29045;BME280;16133;49.486;12.176;2023-10-08T10:15:38;98145.50;;;19.58;72.86
29045;BME280;16133;49.486;12.176;2023-10-08T10:18:14;98152.06;;;19.69;73.87
29045;BME280;16133;49.486;12.176;2023-10-08T10:20:44;98153.00;;;19.81;71.29
29045;BME280;16133;49.486;12.176;2023-10-08T10:26:32;98163.94;;;19.17;74.93
29045;BME280;16133;49.486;12.176;2023-10-08T10:31:44;98165.16;;;18.89;75.55
29045;BME280;16133;49.486;12.176;2023-10-08T10:34:11;98162.09;;;18.73;76.67
29045;BME280;16133;49.486;12.176;2023-10-08T10:36:39;98169.78;;;18.49;78.24
29045;BME280;16133;49.486;12.176;2023-10-08T10:39:09;98179.94;;;18.41;78.38
29045;BME280;16133;49.486;12.176;2023-10-08T10:41:52;98157.44;;;18.29;79.11
29045;BME280;16133;49.486;12.176;2023-10-08T10:44:30;98154.16;;;18.20;79.75
29045;BME280;16133;49.486;12.176;2023-10-08T10:46:57;98166.38;;;18.16;80.08
29045;BME280;16133;49.486;12.176;2023-10-08T10:49:44;98165.94;;;18.06;81.33
29045;BME280;16133;49.486;12.176;2023-10-08T10:52:24;98173.63;;;17.96;82.04
29045;BME280;16133;49.486;12.176;2023-10-08T10:55:08;98181.66;;;17.83;82.90
29045;BME280;16133;49.486;12.176;2023-10-08T10:57:58;98190.56;;;17.77;84.67
29045;BME280;16133;49.486;12.176;2023-10-08T11:00:37;98189.66;;;17.56;86.46
29045;BME280;16133;49.486;12.176;2023-10-08T11:03:03;98210.25;;;17.23;87.02
29045;BME280;16133;49.486;12.176;2023-10-08T11:05:43;98207.16;;;16.72;86.67
29045;BME280;16133;49.486;12.176;2023-10-08T11:08:14;98199.53;;;16.41;86.22
29045;BME280;16133;49.486;12.176;2023-10-08T11:10:42;98196.94;;;16.20;85.79
29045;BME280;16133;49.486;12.176;2023-10-08T11:13:15;98212.91;;;15.79;86.43
29045;BME280;16133;49.486;12.176;2023-10-08T11:15:43;98202.91;;;15.66;86.80
29045;BME280;16133;49.486;12.176;2023-10-08T11:18:14;98211.63;;;15.54;87.55
29045;BME280;16133;49.486;12.176;2023-10-08T11:20:41;98211.91;;;15.44;87.82
29045;BME280;16133;49.486;12.176;2023-10-08T11:23:10;98205.19;;;15.48;88.54
29045;BME280;16133;49.486;12.176;2023-10-08T11:25:58;98204.53;;;15.46;88.07
29045;BME280;16133;49.486;12.176;2023-10-08T11:28:31;98208.38;;;15.58;87.29
29045;BME280;16133;49.486;12.176;2023-10-08T11:31:03;98222.72;;;15.51;87.20
29045;BME280;16133;49.486;12.176;2023-10-08T11:33:42;98234.03;;;15.53;85.77
29045;BME280;16133;49.486;12.176;2023-10-08T11:36:17;98245.28;;;15.48;84.31
29045;BME280;16133;49.486;12.176;2023-10-08T11:38:46;98238.66;;;15.44;83.61
29045;BME280;16133;49.486;12.176;2023-10-08T11:41:17;98260.41;;;15.41;83.61
29045;BME280;16133;49.486;12.176;2023-10-08T11:43:50;98257.78;;;15.26;84.56
29045;BME280;16133;49.486;12.176;2023-10-08T11:48:56;98253.34;;;14.98;86.27
29045;BME280;16133;49.486;12.176;2023-10-08T11:51:32;98259.66;;;15.11;85.32
29045;BME280;16133;49.486;12.176;2023-10-08T11:53:59;98255.91;;;15.06;85.64
29045;BME280;16133;49.486;12.176;2023-10-08T11:56:26;98264.63;;;15.14;84.88
29045;BME280;16133;49.486;12.176;2023-10-08T11:58:52;98268.41;;;15.20;84.24
29045;BME280;16133;49.486;12.176;2023-10-08T12:01:21;98253.25;;;15.06;84.89
29045;BME280;16133;49.486;12.176;2023-10-08T12:03:47;98253.13;;;15.14;84.47
29045;BME280;16133;49.486;12.176;2023-10-08T12:06:15;98261.78;;;15.16;85.71
29045;BME280;16133;49.486;12.176;2023-10-08T12:08:44;98268.41;;;15.20;84.45
29045;BME280;16133;49.486;12.176;2023-10-08T12:11:10;98270.44;;;15.18;84.99
29045;BME280;16133;49.486;12.176;2023-10-08T12:13:45;98283.34;;;15.14;86.47
29045;BME280;16133;49.486;12.176;2023-10-08T12:16:16;98290.00;;;15.04;85.70
29045;BME280;16133;49.486;12.176;2023-10-08T12:18:47;98274.97;;;15.03;86.58
29045;BME280;16133;49.486;12.176;2023-10-08T12:21:24;98284.03;;;15.02;87.16
29045;BME280;16133;49.486;12.176;2023-10-08T12:23:50;98248.09;;;14.60;88.50
29045;BME280;16133;49.486;12.176;2023-10-08T12:26:17;98295.38;;;14.74;90.76
29045;BME280;16133;49.486;12.176;2023-10-08T12:28:48;98311.88;;;14.78;91.86
29045;BME280;16133;49.486;12.176;2023-10-08T12:31:18;98293.34;;;14.76;92.44
29045;BME280;16133;49.486;12.176;2023-10-08T12:33:48;98250.34;;;14.71;92.48
29045;BME280;16133;49.486;12.176;2023-10-08T12:36:17;98250.41;;;14.93;91.06
29045;BME280;16133;49.486;12.176;2023-10-08T12:38:43;98250.19;;;15.09;92.09
29045;BME280;16133;49.486;12.176;2023-10-08T12:41:10;98248.94;;;15.26;89.19
29045;BME280;16133;49.486;12.176;2023-10-08T12:43:40;98245.78;;;15.52;87.61
29045;BME280;16133;49.486;12.176;2023-10-08T12:46:13;98234.44;;;15.71;87.43
29045;BME280;16133;49.486;12.176;2023-10-08T12:48:49;98240.94;;;16.11;87.13
29045;BME280;16133;49.486;12.176;2023-10-08T12:51:19;98250.41;;;16.62;81.59
29045;BME280;16133;49.486;12.176;2023-10-08T12:53:49;98255.53;;;16.64;81.65
29045;BME280;16133;49.486;12.176;2023-10-08T12:56:28;98263.88;;;16.76;80.48
29045;BME280;16133;49.486;12.176;2023-10-08T12:59:14;98276.41;;;16.68;81.18
29045;BME280;16133;49.486;12.176;2023-10-08T13:01:46;98275.34;;;16.63;80.62
29045;BME280;16133;49.486;12.176;2023-10-08T13:04:19;98281.16;;;16.66;81.50
29045;BME280;16133;49.486;12.176;2023-10-08T13:06:57;98284.94;;;16.79;78.56
29045;BME280;16133;49.486;12.176;2023-10-08T13:09:26;98281.31;;;16.65;79.78
29045;BME280;16133;49.486;12.176;2023-10-08T13:11:51;98286.19;;;16.55;81.08
29045;BME280;16133;49.486;12.176;2023-10-08T13:14:16;98276.94;;;16.57;80.94
29045;BME280;16133;49.486;12.176;2023-10-08T13:16:42;98277.72;;;16.51;79.55
29045;BME280;16133;49.486;12.176;2023-10-08T13:19:10;98288.47;;;16.30;79.78
29045;BME280;16133;49.486;12.176;2023-10-08T13:21:35;98287.38;;;15.97;81.82
29045;BME280;16133;49.486;12.176;2023-10-08T13:24:02;98279.72;;;15.72;83.53
29045;BME280;16133;49.486;12.176;2023-10-08T13:26:29;98284.28;;;15.57;84.01
29045;BME280;16133;49.486;12.176;2023-10-08T13:28:57;98283.09;;;15.45;85.77